| time (UTC) | temp F | wind direction | speed knots | gust knots | rain 1hr in | rain 24hr in | rain mn in | humidity % | barometer mb |
| 20260902211003 | 80 | 177 | 0.0 | 0.0 | 0.00 | 0.45 | 0.45 | 91 | 1015.5 |
| 20260902210502 | 80 | 177 | 0.0 | 0.0 | 0.00 | 0.45 | 0.45 | 93 | 1015.5 |
| 20260902210007 | 80 | 178 | 0.0 | 0.0 | 0.00 | 0.45 | 0.45 | 92 | 1015.5 |
| 20260902205004 | 80 | 177 | 0.0 | 0.0 | 0.00 | 0.45 | 0.45 | 92 | 1015.7 |
| 20260902204505 | 80 | 178 | 0.0 | 0.0 | 0.00 | 0.45 | 0.45 | 92 | 1015.7 |
| 20260902204004 | 79 | 178 | 0.0 | 0.0 | 0.00 | 0.45 | 0.45 | 93 | 1015.9 |
| 20260902203503 | 79 | 178 | 0.0 | 0.0 | 0.00 | 0.45 | 0.45 | 92 | 1016.1 |
| 20260902203005 | 79 | 177 | 0.0 | 0.0 | 0.00 | 0.45 | 0.45 | 93 | 1016.1 |
| 20260902202503 | 79 | 178 | 0.0 | 0.0 | 0.00 | 0.45 | 0.45 | 93 | 1016.2 |
| 20260902202004 | 79 | 177 | 0.0 | 0.0 | 0.00 | 0.45 | 0.45 | 93 | 1016.3 |
| 20260902201503 | 79 | 176 | 0.0 | 0.0 | 0.00 | 0.45 | 0.45 | 93 | 1016.3 |
| 20260902201004 | 79 | 177 | 0.0 | 0.0 | 0.00 | 0.45 | 0.45 | 93 | 1016.4 |
| 20260902200503 | 79 | 76 | 0.0 | 0.0 | 0.00 | 0.45 | 0.45 | 93 | 1016.5 |
| 20260902200006 | 79 | 66 | 0.0 | 0.0 | 0.00 | 0.45 | 0.45 | 93 | 1016.5 |
| 20260902195503 | 78 | 66 | 0.0 | 0.0 | 0.00 | 0.45 | 0.45 | 93 | 1016.5 |
| 20260902195004 | 78 | 66 | 0.0 | 0.9 | 0.00 | 0.45 | 0.45 | 93 | 1016.5 |
| 20260902194503 | 78 | 66 | 0.9 | 2.6 | 0.00 | 0.45 | 0.45 | 93 | 1016.5 |
| 20260902194004 | 78 | 66 | 0.0 | 2.6 | 0.00 | 0.45 | 0.45 | 93 | 1016.4 |
| 20260902193503 | 78 | 45 | 0.0 | 0.9 | 0.01 | 0.45 | 0.45 | 93 | 1016.3 |
| 20260902193006 | 78 | 46 | 0.0 | 0.0 | 0.01 | 0.45 | 0.45 | 93 | 1016.3 |
| 20260902192005 | 77 | 46 | 0.0 | 0.0 | 0.02 | 0.45 | 0.45 | 93 | 1016.3 |
| 20260902191504 | 77 | 44 | 0.0 | 0.9 | 0.06 | 0.45 | 0.45 | 93 | 1016.3 |
| 20260902191003 | 77 | 44 | 0.0 | 0.9 | 0.06 | 0.45 | 0.45 | 93 | 1016.1 |
| 20260902190503 | 77 | 44 | 0.0 | 1.7 | 0.06 | 0.45 | 0.45 | 93 | 1016.2 |
| 20260902190008 | 77 | 45 | 0.0 | 1.7 | 0.06 | 0.45 | 0.45 | 93 | 1016.3 |
| 20260902185503 | 77 | 45 | 0.0 | 0.0 | 0.06 | 0.45 | 0.45 | 92 | 1016.3 |
| 20260902185004 | 77 | 45 | 0.0 | 0.0 | 0.08 | 0.45 | 0.45 | 92 | 1016.2 |
| 20260902183503 | 76 | 45 | 0.0 | 1.7 | 0.44 | 0.44 | 0.44 | 91 | 1016.6 |
| 20260902183005 | 76 | 46 | 0.9 | 1.7 | 0.44 | 0.44 | 0.44 | 90 | 1016.7 |
| 20260902182504 | 77 | 45 | 0.9 | 1.7 | 0.44 | 0.44 | 0.44 | 90 | 1016.5 |
| 20260902182004 | 77 | 46 | 0.0 | 1.7 | 0.43 | 0.43 | 0.43 | 89 | 1016.7 |
| 20260902180503 | 78 | 125 | 0.9 | 1.7 | 0.39 | 0.39 | 0.39 | 87 | 1016.8 |
| 20260902180008 | 79 | 194 | 0.9 | 1.7 | 0.39 | 0.39 | 0.39 | 85 | 1016.7 |
| 20260902175503 | 79 | 197 | 1.7 | 3.5 | 0.39 | 0.39 | 0.39 | 84 | 1016.7 |
| 20260902175007 | 80 | 10 | 1.7 | 8.7 | 0.36 | 0.36 | 0.36 | 81 | 1017.0 |
| 20260902174532 | 82 | 304 | 1.7 | 10.4 | 0.20 | 0.20 | 0.20 | 78 | 1017.2 |
| 20260902174004 | 84 | 184 | 0.9 | 10.4 | 0.07 | 0.07 | 0.07 | 76 | 1017.5 |
| 20260902172503 | 87 | 55 | 0.9 | 2.6 | 0.00 | 0.00 | 0.00 | 70 | 1016.9 |
| 20260902172004 | 89 | 19 | 0.9 | 3.5 | 0.00 | 0.00 | 0.00 | 69 | 1016.8 |
| 20260902171005 | 89 | 51 | 0.9 | 5.2 | 0.00 | 0.00 | 0.00 | 72 | 1016.7 |
| 20260902170504 | 89 | 88 | 0.9 | 2.6 | 0.00 | 0.00 | 0.00 | 73 | 1016.8 |
| 20260902170005 | 89 | 103 | 0.9 | 1.7 | 0.00 | 0.00 | 0.00 | 74 | 1016.8 |
| 20260902165502 | 88 | 168 | 0.9 | 4.3 | 0.00 | 0.00 | 0.00 | 76 | 1016.8 |
| 20260902165003 | 88 | 67 | 0.9 | 4.3 | 0.00 | 0.00 | 0.00 | 77 | 1017.2 |
| 20260902164003 | 87 | 36 | 0.9 | 1.7 | 0.00 | 0.00 | 0.00 | 76 | 1017.4 |
| 20260902163502 | 87 | 342 | 0.9 | 5.2 | 0.00 | 0.00 | 0.00 | 76 | 1017.4 |
| 20260902163004 | 88 | 99 | 0.9 | 5.2 | 0.00 | 0.00 | 0.00 | 76 | 1017.4 |
| 20260902162503 | 88 | 112 | 0.9 | 2.6 | 0.00 | 0.00 | 0.00 | 77 | 1017.3 |
| 20260902162004 | 88 | 81 | 0.9 | 5.2 | 0.00 | 0.00 | 0.00 | 76 | 1017.3 |
| 20260902161502 | 88 | 128 | 0.9 | 2.6 | 0.00 | 0.00 | 0.00 | 76 | 1017.3 |
| 20260902161003 | 88 | 26 | 0.9 | 2.6 | 0.00 | 0.00 | 0.00 | 77 | 1017.3 |
| 20260902160005 | 88 | 145 | 1.7 | 3.5 | 0.00 | 0.00 | 0.00 | 78 | 1017.4 |
| 20260902155003 | 87 | 109 | 0.9 | 5.2 | 0.00 | 0.00 | 0.00 | 80 | 1017.4 |
| 20260902154503 | 86 | 74 | 0.0 | 2.6 | 0.00 | 0.00 | 0.00 | 80 | 1017.5 |
| 20260902153003 | 86 | 134 | 0.0 | 1.7 | 0.00 | 0.00 | 0.00 | 80 | 1017.4 |
| 20260902152503 | 86 | 17 | 0.9 | 1.7 | 0.00 | 0.00 | 0.00 | 80 | 1017.5 |
| 20260902152002 | 86 | 114 | 0.9 | 2.6 | 0.00 | 0.00 | 0.00 | 81 | 1017.4 |
| 20260902151503 | 86 | 169 | 0.9 | 2.6 | 0.00 | 0.00 | 0.00 | 81 | 1017.3 |
| 20260902151003 | 86 | 115 | 0.9 | 2.6 | 0.00 | 0.00 | 0.00 | 81 | 1017.3 |
| 20260902150503 | 85 | 70 | 0.9 | 3.5 | 0.00 | 0.00 | 0.00 | 82 | 1017.2 |
| 20260902145504 | 85 | 49 | 1.7 | 5.2 | 0.00 | 0.00 | 0.00 | 82 | 1017.2 |
| 20260902145003 | 85 | 61 | 0.9 | 3.5 | 0.00 | 0.00 | 0.00 | 83 | 1017.3 |
| 20260902144503 | 85 | 277 | 0.9 | 6.1 | 0.00 | 0.00 | 0.00 | 83 | 1017.3 |
| 20260902144004 | 84 | 146 | 0.9 | 6.1 | 0.00 | 0.00 | 0.00 | 84 | 1017.3 |
| 20260902143504 | 84 | 237 | 0.9 | 5.2 | 0.00 | 0.00 | 0.00 | 85 | 1017.2 |
| 20260902142503 | 82 | 88 | 0.9 | 3.5 | 0.00 | 0.00 | 0.00 | 86 | 1017.2 |
| 20260902141004 | 81 | 98 | 0.9 | 3.5 | 0.00 | 0.00 | 0.00 | 89 | 1017.0 |
| 20260902140503 | 81 | 98 | 0.9 | 4.3 | 0.00 | 0.00 | 0.00 | 89 | 1017.0 |
| 20260902135503 | 80 | 148 | 0.9 | 1.7 | 0.00 | 0.00 | 0.00 | 90 | 1017.0 |
| 20260902135004 | 80 | 141 | 0.9 | 5.2 | 0.00 | 0.00 | 0.00 | 90 | 1016.9 |
| 20260902134502 | 79 | 184 | 0.9 | 5.2 | 0.00 | 0.00 | 0.00 | 90 | 1016.9 |
| 20260902134003 | 79 | 137 | 0.9 | 3.5 | 0.00 | 0.00 | 0.00 | 91 | 1017.0 |
| 20260902133502 | 79 | 106 | 0.9 | 2.6 | 0.00 | 0.00 | 0.00 | 91 | 1016.9 |
| 20260902132503 | 79 | 136 | 0.0 | 6.1 | 0.00 | 0.00 | 0.00 | 92 | 1016.9 |
| 20260902132003 | 78 | 105 | 0.0 | 6.1 | 0.00 | 0.00 | 0.00 | 92 | 1017.0 |
| 20260902131503 | 78 | 96 | 0.0 | 0.0 | 0.00 | 0.00 | 0.00 | 92 | 1017.0 |
| 20260902131004 | 78 | 86 | 0.0 | 0.0 | 0.00 | 0.00 | 0.00 | 92 | 1017.0 |
| 20260902130004 | 78 | 98 | 0.0 | 0.0 | 0.00 | 0.00 | 0.00 | 93 | 1016.9 |
| 20260902125503 | 77 | 121 | 0.0 | 0.0 | 0.00 | 0.00 | 0.00 | 93 | 1016.9 |
| 20260902125003 | 77 | 121 | 0.0 | 1.7 | 0.00 | 0.00 | 0.00 | 93 | 1016.8 |
| 20260902124504 | 77 | 163 | 0.0 | 1.7 | 0.00 | 0.00 | 0.00 | 93 | 1016.8 |
| 20260902124004 | 77 | 92 | 0.0 | 0.9 | 0.00 | 0.00 | 0.00 | 93 | 1016.8 |
| 20260902123504 | 77 | 92 | 0.9 | 2.6 | 0.00 | 0.00 | 0.00 | 93 | 1016.7 |
| 20260902123004 | 77 | 111 | 0.9 | 3.5 | 0.00 | 0.00 | 0.00 | 93 | 1016.6 |
| 20260902122504 | 77 | 92 | 0.9 | 3.5 | 0.00 | 0.00 | 0.00 | 93 | 1016.7 |
| 20260902122005 | 77 | 78 | 0.0 | 1.7 | 0.00 | 0.00 | 0.00 | 93 | 1016.6 |
| 20260902121504 | 77 | 80 | 0.0 | 1.7 | 0.00 | 0.00 | 0.00 | 93 | 1016.5 |
| 20260902121007 | 77 | 138 | 0.9 | 1.7 | 0.00 | 0.00 | 0.00 | 93 | 1016.4 |
| 20260902115503 | 77 | 101 | 0.0 | 2.6 | 0.00 | 0.00 | 0.00 | 93 | 1016.5 |
| 20260902115005 | 77 | 101 | 0.0 | 2.6 | 0.00 | 0.00 | 0.00 | 93 | 1016.5 |
| 20260902114503 | 76 | 71 | 0.0 | 0.0 | 0.00 | 0.00 | 0.00 | 93 | 1016.5 |
| 20260902114003 | 76 | 71 | 0.0 | 0.0 | 0.00 | 0.00 | 0.00 | 92 | 1016.4 |
| 20260902113503 | 76 | 71 | 0.0 | 0.0 | 0.00 | 0.00 | 0.00 | 93 | 1016.4 |
| 20260902113004 | 76 | 71 | 0.0 | 0.0 | 0.00 | 0.00 | 0.00 | 93 | 1016.4 |
| 20260902112503 | 76 | 71 | 0.0 | 0.0 | 0.00 | 0.00 | 0.00 | 93 | 1016.1 |
| 20260902112003 | 76 | 72 | 0.0 | 0.0 | 0.00 | 0.00 | 0.00 | 93 | 1016.1 |
| 20260902111503 | 76 | 72 | 0.0 | 0.0 | 0.00 | 0.00 | 0.00 | 93 | 1016.0 |
| 20260902110007 | 76 | 124 | 0.0 | 0.0 | 0.00 | 0.00 | 0.00 | 92 | 1015.7 |
| 20260902105503 | 76 | 124 | 0.0 | 0.0 | 0.00 | 0.00 | 0.00 | 92 | 1015.8 |
| 20260902105003 | 76 | 134 | 0.0 | 0.0 | 0.00 | 0.00 | 0.00 | 92 | 1016.0 |
| 20260902103500 | 76 | 137 | 0.0 | 0.0 | 0.00 | 0.00 | 0.00 | 92 | 1015.9 |
| 20260902102502 | 76 | 140 | 0.0 | 0.0 | 0.00 | 0.00 | 0.00 | 92 | 1016.0 |
| 20260902102003 | 76 | 39 | 0.0 | 0.0 | 0.00 | 0.00 | 0.00 | 92 | 1016.0 |
| 20260902101503 | 76 | 39 | 0.0 | 0.0 | 0.00 | 0.00 | 0.00 | 92 | 1016.0 |
| 20260902101003 | 76 | 39 | 0.0 | 0.0 | 0.00 | 0.00 | 0.00 | 92 | 1016.0 |
| 20260902100503 | 76 | 39 | 0.0 | 0.0 | 0.00 | 0.00 | 0.00 | 92 | 1015.9 |
| 20260902100004 | 76 | 39 | 0.0 | 0.0 | 0.00 | 0.00 | 0.00 | 92 | 1015.9 |
| 20260902095500 | 76 | 82 | 0.0 | 0.0 | 0.00 | 0.00 | 0.00 | 92 | 1015.9 |
| 20260902095003 | 76 | 82 | 0.0 | 0.0 | 0.00 | 0.00 | 0.00 | 92 | 1015.8 |
| 20260902094504 | 76 | 82 | 0.0 | 0.0 | 0.00 | 0.00 | 0.00 | 92 | 1015.7 |
| 20260902094004 | 76 | 82 | 0.0 | 0.0 | 0.00 | 0.00 | 0.00 | 91 | 1015.6 |
| 20260902093503 | 76 | 82 | 0.0 | 0.0 | 0.00 | 0.00 | 0.00 | 91 | 1015.7 |
| 20260902093004 | 76 | 82 | 0.0 | 0.0 | 0.00 | 0.00 | 0.00 | 91 | 1015.6 |
| 20260902092503 | 77 | 82 | 0.0 | 0.0 | 0.00 | 0.00 | 0.00 | 91 | 1015.7 |
| 20260902092003 | 77 | 82 | 0.0 | 0.0 | 0.00 | 0.00 | 0.00 | 91 | 1015.7 |
| 20260902091503 | 77 | 82 | 0.0 | 0.0 | 0.00 | 0.00 | 0.00 | 91 | 1015.6 |
| 20260902091004 | 77 | 82 | 0.0 | 0.0 | 0.00 | 0.00 | 0.00 | 91 | 1015.5 |
| 20260902090503 | 77 | 82 | 0.0 | 0.0 | 0.00 | 0.00 | 0.00 | 91 | 1015.5 |
| 20260902090005 | 77 | 82 | 0.0 | 0.0 | 0.00 | 0.00 | 0.00 | 91 | 1015.6 |
| 20260902085503 | 77 | 82 | 0.0 | 1.7 | 0.00 | 0.00 | 0.00 | 91 | 1015.6 |
| 20260902085004 | 77 | 161 | 0.0 | 1.7 | 0.00 | 0.00 | 0.00 | 91 | 1015.7 |
| 20260902084503 | 77 | 169 | 0.0 | 2.6 | 0.00 | 0.00 | 0.00 | 91 | 1015.7 |
| 20260902084004 | 77 | 201 | 0.0 | 1.7 | 0.00 | 0.00 | 0.00 | 91 | 1015.5 |
| 20260902083503 | 77 | 201 | 0.0 | 2.6 | 0.00 | 0.00 | 0.00 | 91 | 1015.5 |
| 20260902082004 | 77 | 81 | 0.0 | 0.9 | 0.00 | 0.00 | 0.00 | 91 | 1015.6 |
| 20260902081503 | 77 | 110 | 0.0 | 0.9 | 0.00 | 0.00 | 0.00 | 90 | 1015.6 |
| 20260902081004 | 77 | 124 | 0.0 | 0.0 | 0.00 | 0.00 | 0.00 | 90 | 1015.6 |
| 20260902080005 | 77 | 124 | 0.0 | 0.0 | 0.00 | 0.00 | 0.00 | 90 | 1015.6 |
| 20260902075503 | 77 | 125 | 0.0 | 1.7 | 0.00 | 0.00 | 0.00 | 90 | 1015.7 |
| 20260902075003 | 77 | 125 | 0.0 | 1.7 | 0.00 | 0.00 | 0.00 | 90 | 1015.7 |
| 20260902074503 | 77 | 183 | 0.0 | 1.7 | 0.00 | 0.00 | 0.00 | 90 | 1015.6 |
| 20260902074003 | 77 | 137 | 0.0 | 3.5 | 0.00 | 0.00 | 0.00 | 90 | 1015.7 |
| 20260902073004 | 77 | 223 | 0.9 | 2.6 | 0.00 | 0.00 | 0.00 | 90 | 1015.8 |
| 20260902072501 | 77 | 119 | 0.9 | 2.6 | 0.00 | 0.00 | 0.00 | 89 | 1015.7 |
| 20260902072003 | 77 | 87 | 0.9 | 2.6 | 0.00 | 0.00 | 0.00 | 89 | 1015.9 |
| 20260902071504 | 77 | 115 | 0.0 | 1.7 | 0.00 | 0.00 | 0.00 | 89 | 1015.9 |
| 20260902070007 | 77 | 98 | 0.0 | 0.9 | 0.00 | 0.00 | 0.00 | 88 | 1016.1 |
| 20260902065503 | 77 | 98 | 0.0 | 2.6 | 0.00 | 0.00 | 0.00 | 88 | 1016.1 |
| 20260902065004 | 78 | 108 | 0.0 | 2.6 | 0.00 | 0.00 | 0.00 | 88 | 1016.1 |
| 20260902064503 | 78 | 145 | 0.0 | 1.7 | 0.00 | 0.00 | 0.00 | 88 | 1016.0 |
| 20260902064004 | 78 | 146 | 0.9 | 2.6 | 0.00 | 0.00 | 0.00 | 88 | 1016.1 |
| 20260902063504 | 78 | 90 | 0.9 | 4.3 | 0.00 | 0.00 | 0.00 | 88 | 1016.1 |
| 20260902063004 | 78 | 130 | 0.9 | 4.3 | 0.00 | 0.00 | 0.00 | 87 | 1016.1 |
| 20260902062503 | 78 | 90 | 0.0 | 3.5 | 0.00 | 0.00 | 0.00 | 87 | 1016.1 |
| 20260902062003 | 78 | 137 | 0.0 | 0.0 | 0.00 | 0.00 | 0.00 | 87 | 1016.1 |
| 20260902061003 | 78 | 75 | 0.0 | 0.0 | 0.00 | 0.00 | 0.00 | 87 | 1016.1 |
| 20260902060006 | 78 | 103 | 0.0 | 0.0 | 0.00 | 0.00 | 0.00 | 87 | 1016.1 |
| 20260902055504 | 78 | 88 | 0.9 | 3.5 | 0.00 | 0.00 | 0.00 | 86 | 1016.2 |
| 20260902055004 | 78 | 126 | 0.9 | 3.5 | 0.00 | 0.00 | 0.00 | 86 | 1016.2 |
| 20260902054504 | 78 | 200 | 0.0 | 1.7 | 0.00 | 0.00 | 0.00 | 86 | 1016.1 |
| 20260902054005 | 79 | 206 | 0.0 | 1.7 | 0.00 | 0.00 | 0.00 | 86 | 1016.1 |
| 20260902053505 | 79 | 207 | 0.9 | 3.5 | 0.00 | 0.00 | 0.00 | 85 | 1016.2 |
| 20260902052504 | 79 | 182 | 0.9 | 6.1 | 0.00 | 0.00 | 0.00 | 85 | 1016.0 |
| 20260902051504 | 79 | 49 | 0.9 | 6.1 | 0.00 | 0.00 | 0.00 | 85 | 1016.0 |
| 20260902051005 | 79 | 149 | 0.9 | 4.3 | 0.00 | 0.00 | 0.00 | 85 | 1015.9 |
| 20260902050009 | 79 | 24 | 0.9 | 2.6 | 0.00 | 0.00 | 0.00 | 85 | 1016.0 |
| 20260902045503 | 79 | 63 | 0.9 | 4.3 | 0.00 | 0.00 | 0.00 | 84 | 1016.0 |
| 20260902045004 | 79 | 157 | 0.9 | 4.3 | 0.00 | 0.00 | 0.00 | 84 | 1016.0 |
| 20260902044504 | 79 | 142 | 0.9 | 7.0 | 0.00 | 0.00 | 0.00 | 84 | 1016.0 |
| 20260902043504 | 79 | 113 | 0.9 | 2.6 | 0.00 | 0.00 | 0.00 | 84 | 1016.1 |
| 20260902043006 | 79 | 136 | 0.0 | 1.7 | 0.00 | 0.00 | 0.00 | 84 | 1016.0 |
| 20260902042504 | 79 | 113 | 0.0 | 2.6 | 0.00 | 0.00 | 0.00 | 84 | 1016.0 |
| 20260902042004 | 79 | 117 | 0.0 | 2.6 | 0.00 | 0.00 | 0.00 | 84 | 1016.0 |
| 20260902041504 | 79 | 101 | 0.0 | 0.9 | 0.00 | 0.00 | 0.00 | 83 | 1015.8 |
| 20260902041006 | 79 | 101 | 0.0 | 0.9 | 0.00 | 0.00 | 0.00 | 83 | 1015.8 |
| 20260902040504 | 79 | 101 | 0.0 | 2.6 | 0.00 | 0.00 | 0.00 | 83 | 1016.0 |
| 20260902040006 | 79 | 101 | 0.9 | 2.6 | 0.00 | 0.00 | 0.00 | 83 | 1015.8 |
| 20260902035504 | 79 | 88 | 0.0 | 2.6 | 0.00 | 0.00 | 0.00 | 83 | 1015.7 |
| 20260902035005 | 79 | 146 | 0.0 | 2.6 | 0.00 | 0.00 | 0.00 | 83 | 1015.6 |
| 20260902034004 | 80 | 95 | 0.9 | 3.5 | 0.00 | 0.00 | 0.00 | 82 | 1015.7 |
| 20260902033504 | 80 | 113 | 0.9 | 2.6 | 0.00 | 0.00 | 0.00 | 82 | 1015.6 |
| 20260902033004 | 80 | 130 | 0.9 | 2.6 | 0.00 | 0.00 | 0.00 | 82 | 1015.7 |
| 20260902032504 | 80 | 125 | 0.9 | 1.7 | 0.00 | 0.00 | 0.00 | 82 | 1015.6 |
| 20260902032004 | 80 | 137 | 0.9 | 2.6 | 0.00 | 0.00 | 0.00 | 82 | 1015.7 |
| 20260902031505 | 80 | 72 | 0.9 | 2.6 | 0.00 | 0.00 | 0.00 | 82 | 1015.7 |
| 20260902031003 | 80 | 127 | 0.9 | 5.2 | 0.00 | 0.00 | 0.00 | 82 | 1015.7 |
| 20260902030505 | 80 | 161 | 0.9 | 5.2 | 0.00 | 0.00 | 0.00 | 82 | 1015.7 |
| 20260902025004 | 80 | 123 | 0.0 | 2.6 | 0.00 | 0.00 | 0.00 | 81 | 1015.6 |
| 20260902024505 | 80 | 203 | 0.0 | 0.9 | 0.00 | 0.00 | 0.00 | 82 | 1015.6 |
| 20260902024004 | 80 | 108 | 0.0 | 1.7 | 0.00 | 0.00 | 0.00 | 81 | 1015.6 |
| 20260902023506 | 80 | 101 | 0.0 | 0.9 | 0.00 | 0.00 | 0.00 | 81 | 1015.6 |
| 20260902023005 | 80 | 108 | 0.0 | 0.0 | 0.00 | 0.00 | 0.00 | 81 | 1015.6 |
| 20260902022505 | 80 | 127 | 0.0 | 0.0 | 0.00 | 0.00 | 0.00 | 81 | 1015.6 |
| 20260902022004 | 80 | 127 | 0.0 | 0.0 | 0.00 | 0.00 | 0.00 | 81 | 1015.5 |
| 20260902021503 | 80 | 95 | 0.0 | 0.9 | 0.00 | 0.00 | 0.00 | 80 | 1015.4 |
| 20260902021004 | 80 | 95 | 0.0 | 1.7 | 0.00 | 0.00 | 0.00 | 80 | 1015.1 |
| 20260902020503 | 80 | 95 | 0.0 | 1.7 | 0.00 | 0.00 | 0.00 | 80 | 1014.8 |
| 20260902020004 | 80 | 105 | 0.0 | 1.7 | 0.00 | 0.00 | 0.00 | 79 | 1015.0 |
| 20260902015503 | 80 | 105 | 0.0 | 1.7 | 0.00 | 0.00 | 0.00 | 79 | 1014.9 |
| 20260902015003 | 80 | 63 | 0.0 | 0.0 | 0.00 | 0.00 | 0.00 | 78 | 1015.0 |
| 20260902014503 | 81 | 63 | 0.0 | 0.0 | 0.00 | 0.00 | 0.00 | 78 | 1015.2 |
| 20260902014004 | 81 | 63 | 0.0 | 0.0 | 0.00 | 0.00 | 0.00 | 78 | 1015.2 |
| 20260902013503 | 81 | 63 | 0.0 | 0.0 | 0.00 | 0.00 | 0.00 | 77 | 1015.0 |
| 20260902013004 | 81 | 63 | 0.0 | 0.0 | 0.00 | 0.00 | 0.00 | 77 | 1014.9 |
| 20260902011504 | 82 | 63 | 0.0 | 0.0 | 0.00 | 0.00 | 0.00 | 76 | 1015.1 |
| 20260902011003 | 82 | 63 | 0.0 | 0.0 | 0.00 | 0.00 | 0.00 | 75 | 1015.2 |
| 20260902010503 | 82 | 63 | 0.0 | 1.7 | 0.00 | 0.00 | 0.00 | 74 | 1015.1 |
| 20260902005504 | 83 | 74 | 0.9 | 2.6 | 0.00 | 0.00 | 0.00 | 73 | 1015.2 |
| 20260902005004 | 83 | 74 | 0.9 | 5.2 | 0.00 | 0.00 | 0.00 | 73 | 1015.2 |
| 20260902004503 | 83 | 188 | 0.9 | 2.6 | 0.00 | 0.00 | 0.00 | 73 | 1015.2 |
| 20260902004004 | 83 | 188 | 0.9 | 6.1 | 0.00 | 0.00 | 0.00 | 72 | 1015.2 |
| 20260902003503 | 83 | 148 | 1.7 | 6.1 | 0.00 | 0.00 | 0.00 | 72 | 1015.2 |
| 20260902003005 | 83 | 145 | 1.7 | 5.2 | 0.00 | 0.00 | 0.00 | 72 | 1015.3 |
| 20260902002502 | 84 | 108 | 0.9 | 3.5 | 0.00 | 0.00 | 0.00 | 72 | 1015.2 |
| 20260902002004 | 84 | 86 | 0.0 | 1.7 | 0.00 | 0.00 | 0.00 | 72 | 1015.2 |
| 20260902001503 | 84 | 54 | 0.9 | 2.6 | 0.00 | 0.00 | 0.00 | 72 | 1015.2 |
| 20260902001004 | 84 | 137 | 0.0 | 1.7 | 0.00 | 0.00 | 0.00 | 72 | 1015.1 |
| 20260902000503 | 84 | 70 | 0.0 | 1.7 | 0.00 | 0.00 | 0.00 | 71 | 1015.2 |
| 20260902000006 | 85 | 219 | 0.0 | 0.9 | 0.00 | 0.00 | 0.00 | 71 | 1015.3 |
| 20260901235507 | 85 | 219 | 0.9 | 3.5 | 0.00 | 0.00 | 0.00 | 70 | 1015.2 |
| 20260901235005 | 85 | 218 | 1.7 | 3.5 | 0.00 | 0.00 | 0.00 | 70 | 1015.2 |
| 20260901234504 | 85 | 137 | 0.9 | 3.5 | 0.00 | 0.00 | 0.00 | 70 | 1015.1 |
| 20260901234003 | 85 | 265 | 0.9 | 1.7 | 0.00 | 0.00 | 0.00 | 70 | 1015.1 |
| 20260901233504 | 85 | 102 | 0.9 | 5.2 | 0.00 | 0.00 | 0.00 | 71 | 1014.9 |
| 20260901233004 | 85 | 49 | 0.9 | 5.2 | 0.00 | 0.00 | 0.00 | 70 | 1015.0 |
| 20260901232504 | 85 | 56 | 0.0 | 1.7 | 0.00 | 0.00 | 0.00 | 71 | 1014.9 |
| 20260901231503 | 85 | 117 | 0.9 | 3.5 | 0.00 | 0.00 | 0.00 | 70 | 1014.9 |
| 20260901231004 | 86 | 100 | 0.9 | 3.5 | 0.00 | 0.00 | 0.00 | 70 | 1014.9 |
| 20260901230504 | 86 | 140 | 0.9 | 5.2 | 0.00 | 0.00 | 0.00 | 69 | 1014.8 |
| 20260901225504 | 86 | 94 | 0.0 | 3.5 | 0.00 | 0.00 | 0.00 | 70 | 1014.8 |
| 20260901225005 | 86 | 153 | 0.9 | 1.7 | 0.00 | 0.00 | 0.00 | 70 | 1014.7 |
| 20260901224504 | 86 | 153 | 0.9 | 2.6 | 0.00 | 0.00 | 0.00 | 70 | 1014.8 |
| 20260901223504 | 86 | 157 | 0.9 | 5.2 | 0.00 | 0.00 | 0.00 | 70 | 1014.8 |
| 20260901223007 | 86 | 207 | 1.7 | 5.2 | 0.00 | 0.00 | 0.00 | 70 | 1014.8 |
| 20260901222504 | 86 | 109 | 1.7 | 5.2 | 0.00 | 0.00 | 0.00 | 70 | 1014.8 |
| 20260901222004 | 85 | 264 | 0.9 | 4.3 | 0.00 | 0.00 | 0.00 | 69 | 1014.9 |
| 20260901221005 | 86 | 180 | 1.7 | 5.2 | 0.00 | 0.00 | 0.00 | 69 | 1014.8 |
| 20260901220503 | 86 | 188 | 1.7 | 5.2 | 0.00 | 0.00 | 0.00 | 69 | 1015.0 |
| 20260901220006 | 86 | 15 | 1.7 | 7.8 | 0.00 | 0.00 | 0.00 | 69 | 1014.9 |
| 20260901215004 | 86 | 133 | 1.7 | 7.0 | 0.00 | 0.00 | 0.00 | 69 | 1015.2 |
| 20260901214503 | 86 | 205 | 1.7 | 6.1 | 0.00 | 0.00 | 0.00 | 69 | 1015.2 |
| 20260901214003 | 86 | 119 | 0.9 | 6.1 | 0.00 | 0.00 | 0.00 | 69 | 1015.2 |
| 20260901213503 | 86 | 281 | 0.9 | 4.3 | 0.00 | 0.00 | 0.00 | 71 | 1015.2 |
| 20260901213004 | 86 | 294 | 0.9 | 4.3 | 0.00 | 0.00 | 0.00 | 70 | 1015.3 |
| 20260901212503 | 86 | 187 | 1.7 | 4.3 | 0.00 | 0.00 | 0.00 | 70 | 1015.2 |